sensor_id;sensor_type;location;lat;lon;timestamp;P1;durP1;ratioP1;P2;durP2;ratioP2
72575;SDS011;60613;48.658;2.328;2023-02-28T07:13:05;6.60;;;2.80;;
72575;SDS011;60613;48.658;2.328;2023-02-28T07:15:32;6.10;;;2.53;;
72575;SDS011;60613;48.658;2.328;2023-02-28T07:17:58;9.13;;;2.70;;
72575;SDS011;60613;48.658;2.328;2023-02-28T07:20:24;6.20;;;2.53;;
72575;SDS011;60613;48.658;2.328;2023-02-28T07:22:50;9.35;;;2.58;;
72575;SDS011;60613;48.658;2.328;2023-02-28T07:25:24;8.75;;;2.28;;
72575;SDS011;60613;48.658;2.328;2023-02-28T07:27:51;8.73;;;2.40;;
72575;SDS011;60613;48.658;2.328;2023-02-28T07:30:17;6.72;;;2.45;;
72575;SDS011;60613;48.658;2.328;2023-02-28T07:32:43;8.00;;;2.58;;
72575;SDS011;60613;48.658;2.328;2023-02-28T07:35:09;8.30;;;2.40;;
72575;SDS011;60613;48.658;2.328;2023-02-28T07:37:35;8.60;;;2.47;;
72575;SDS011;60613;48.658;2.328;2023-02-28T07:40:04;7.75;;;2.40;;
72575;SDS011;60613;48.658;2.328;2023-02-28T07:42:36;8.23;;;2.33;;
72575;SDS011;60613;48.658;2.328;2023-02-28T07:45:03;8.43;;;2.40;;
72575;SDS011;60613;48.658;2.328;2023-02-28T07:47:29;8.85;;;2.70;;
72575;SDS011;60613;48.658;2.328;2023-02-28T07:49:55;8.07;;;2.47;;
72575;SDS011;60613;48.658;2.328;2023-02-28T07:52:21;6.18;;;2.20;;
72575;SDS011;60613;48.658;2.328;2023-02-28T07:54:48;8.00;;;2.70;;
72575;SDS011;60613;48.658;2.328;2023-02-28T07:57:14;6.53;;;2.22;;
72575;SDS011;60613;48.658;2.328;2023-02-28T07:59:40;8.68;;;2.30;;
72575;SDS011;60613;48.658;2.328;2023-02-28T08:02:06;6.73;;;2.50;;
72575;SDS011;60613;48.658;2.328;2023-02-28T08:04:35;5.90;;;2.28;;
72575;SDS011;60613;48.658;2.328;2023-02-28T08:07:01;6.30;;;2.53;;
72575;SDS011;60613;48.658;2.328;2023-02-28T08:09:26;6.97;;;2.27;;
72575;SDS011;60613;48.658;2.328;2023-02-28T08:11:52;6.10;;;2.20;;
72575;SDS011;60613;48.658;2.328;2023-02-28T08:14:17;7.15;;;2.42;;
72575;SDS011;60613;48.658;2.328;2023-02-28T08:16:43;6.73;;;2.10;;
72575;SDS011;60613;48.658;2.328;2023-02-28T08:19:08;6.80;;;2.30;;
72575;SDS011;60613;48.658;2.328;2023-02-28T08:21:34;5.73;;;2.27;;
72575;SDS011;60613;48.658;2.328;2023-02-28T08:24:00;6.23;;;2.20;;
72575;SDS011;60613;48.658;2.328;2023-02-28T08:26:25;6.40;;;2.20;;
72575;SDS011;60613;48.658;2.328;2023-02-28T08:28:51;6.32;;;2.10;;
72575;SDS011;60613;48.658;2.328;2023-02-28T08:31:17;6.97;;;2.17;;
72575;SDS011;60613;48.658;2.328;2023-02-28T08:33:43;6.13;;;1.95;;
72575;SDS011;60613;48.658;2.328;2023-02-28T08:36:10;6.13;;;2.20;;
72575;SDS011;60613;48.658;2.328;2023-02-28T08:38:36;6.37;;;2.20;;
72575;SDS011;60613;48.658;2.328;2023-02-28T08:41:06;5.45;;;2.20;;
72575;SDS011;60613;48.658;2.328;2023-02-28T08:43:34;6.57;;;2.28;;
72575;SDS011;60613;48.658;2.328;2023-02-28T08:46:00;5.53;;;1.90;;
72575;SDS011;60613;48.658;2.328;2023-02-28T08:48:26;5.30;;;1.97;;
72575;SDS011;60613;48.658;2.328;2023-02-28T08:53:22;5.95;;;2.08;;
72575;SDS011;60613;48.658;2.328;2023-02-28T08:55:55;5.17;;;2.10;;
72575;SDS011;60613;48.658;2.328;2023-02-28T08:58:35;5.78;;;2.10;;
72575;SDS011;60613;48.658;2.328;2023-02-28T09:01:06;5.70;;;2.22;;
72575;SDS011;60613;48.658;2.328;2023-02-28T09:03:47;6.20;;;1.95;;
72575;SDS011;60613;48.658;2.328;2023-02-28T09:06:14;5.10;;;1.90;;
72575;SDS011;60613;48.658;2.328;2023-02-28T09:08:41;4.60;;;1.70;;
72575;SDS011;60613;48.658;2.328;2023-02-28T09:11:07;6.60;;;2.30;;
72575;SDS011;60613;48.658;2.328;2023-02-28T09:13:33;5.93;;;2.13;;
72575;SDS011;60613;48.658;2.328;2023-02-28T09:15:59;6.50;;;2.17;;
72575;SDS011;60613;48.658;2.328;2023-02-28T09:18:26;5.75;;;1.90;;
72575;SDS011;60613;48.658;2.328;2023-02-28T09:20:52;5.30;;;1.73;;
72575;SDS011;60613;48.658;2.328;2023-02-28T09:23:18;5.07;;;1.90;;
72575;SDS011;60613;48.658;2.328;2023-02-28T09:25:45;4.38;;;1.77;;
72575;SDS011;60613;48.658;2.328;2023-02-28T09:28:12;4.93;;;1.60;;
72575;SDS011;60613;48.658;2.328;2023-02-28T09:30:40;5.32;;;1.90;;
72575;SDS011;60613;48.658;2.328;2023-02-28T09:33:06;4.68;;;1.70;;
72575;SDS011;60613;48.658;2.328;2023-02-28T09:35:32;5.63;;;1.80;;
72575;SDS011;60613;48.658;2.328;2023-02-28T09:37:58;4.60;;;1.70;;
72575;SDS011;60613;48.658;2.328;2023-02-28T09:40:24;4.35;;;1.67;;
72575;SDS011;60613;48.658;2.328;2023-02-28T09:42:52;5.28;;;1.90;;
72575;SDS011;60613;48.658;2.328;2023-02-28T09:47:58;5.18;;;1.77;;
72575;SDS011;60613;48.658;2.328;2023-02-28T09:50:36;4.63;;;1.70;;
72575;SDS011;60613;48.658;2.328;2023-02-28T09:53:29;4.30;;;1.50;;
72575;SDS011;60613;48.658;2.328;2023-02-28T09:55:59;6.07;;;1.90;;
72575;SDS011;60613;48.658;2.328;2023-02-28T09:58:40;5.10;;;1.60;;
72575;SDS011;60613;48.658;2.328;2023-02-28T10:01:28;5.72;;;1.77;;
72575;SDS011;60613;48.658;2.328;2023-02-28T10:06:40;5.10;;;1.90;;
72575;SDS011;60613;48.658;2.328;2023-02-28T10:09:13;4.97;;;1.75;;
72575;SDS011;60613;48.658;2.328;2023-02-28T10:11:47;4.23;;;1.50;;
72575;SDS011;60613;48.658;2.328;2023-02-28T10:14:16;5.25;;;1.70;;
72575;SDS011;60613;48.658;2.328;2023-02-28T10:16:48;4.47;;;1.67;;
72575;SDS011;60613;48.658;2.328;2023-02-28T10:19:21;4.78;;;1.90;;
72575;SDS011;60613;48.658;2.328;2023-02-28T10:21:55;4.82;;;1.77;;
72575;SDS011;60613;48.658;2.328;2023-02-28T10:24:35;5.03;;;1.70;;
72575;SDS011;60613;48.658;2.328;2023-02-28T10:27:12;4.47;;;1.60;;
72575;SDS011;60613;48.658;2.328;2023-02-28T10:29:38;3.90;;;1.50;;
72575;SDS011;60613;48.658;2.328;2023-02-28T10:32:08;5.18;;;1.70;;
72575;SDS011;60613;48.658;2.328;2023-02-28T10:34:39;4.50;;;1.63;;
72575;SDS011;60613;48.658;2.328;2023-02-28T10:37:04;4.70;;;1.60;;
72575;SDS011;60613;48.658;2.328;2023-02-28T10:39:41;4.60;;;1.70;;
72575;SDS011;60613;48.658;2.328;2023-02-28T10:42:28;4.18;;;1.73;;
72575;SDS011;60613;48.658;2.328;2023-02-28T10:47:51;4.78;;;1.50;;
72575;SDS011;60613;48.658;2.328;2023-02-28T10:50:33;3.92;;;1.40;;
72575;SDS011;60613;48.658;2.328;2023-02-28T11:01:20;3.83;;;1.50;;
72575;SDS011;60613;48.658;2.328;2023-02-28T11:04:00;5.65;;;1.52;;
72575;SDS011;60613;48.658;2.328;2023-02-28T11:06:30;4.50;;;1.50;;
72575;SDS011;60613;48.658;2.328;2023-02-28T11:08:58;4.85;;;1.45;;
72575;SDS011;60613;48.658;2.328;2023-02-28T11:11:26;4.43;;;1.50;;
72575;SDS011;60613;48.658;2.328;2023-02-28T11:13:54;4.63;;;1.40;;
72575;SDS011;60613;48.658;2.328;2023-02-28T11:16:22;4.45;;;1.40;;
72575;SDS011;60613;48.658;2.328;2023-02-28T11:18:58;4.47;;;1.60;;
72575;SDS011;60613;48.658;2.328;2023-02-28T11:24:14;5.63;;;1.60;;
72575;SDS011;60613;48.658;2.328;2023-02-28T11:26:52;8.10;;;1.95;;
72575;SDS011;60613;48.658;2.328;2023-02-28T11:29:22;6.07;;;1.98;;
72575;SDS011;60613;48.658;2.328;2023-02-28T11:34:36;7.60;;;2.20;;
72575;SDS011;60613;48.658;2.328;2023-02-28T11:37:03;5.95;;;2.30;;
72575;SDS011;60613;48.658;2.328;2023-02-28T11:39:31;6.93;;;2.00;;
72575;SDS011;60613;48.658;2.328;2023-02-28T11:42:02;6.40;;;2.08;;
72575;SDS011;60613;48.658;2.328;2023-02-28T11:47:18;6.03;;;2.10;;
72575;SDS011;60613;48.658;2.328;2023-02-28T12:02:52;6.05;;;1.95;;
72575;SDS011;60613;48.658;2.328;2023-02-28T12:13:50;6.38;;;2.13;;
72575;SDS011;60613;48.658;2.328;2023-02-28T12:19:15;6.30;;;2.13;;
72575;SDS011;60613;48.658;2.328;2023-02-28T12:24:35;6.15;;;2.00;;
72575;SDS011;60613;48.658;2.328;2023-02-28T12:27:28;6.72;;;2.10;;
72575;SDS011;60613;48.658;2.328;2023-02-28T12:30:05;5.60;;;1.80;;
72575;SDS011;60613;48.658;2.328;2023-02-28T12:32:41;6.77;;;2.20;;
72575;SDS011;60613;48.658;2.328;2023-02-28T12:40:28;5.93;;;2.20;;
72575;SDS011;60613;48.658;2.328;2023-02-28T12:43:07;7.07;;;2.30;;
72575;SDS011;60613;48.658;2.328;2023-02-28T12:45:48;8.45;;;2.22;;
72575;SDS011;60613;48.658;2.328;2023-02-28T12:48:31;6.45;;;2.10;;
72575;SDS011;60613;48.658;2.328;2023-02-28T12:51:05;6.20;;;2.10;;
72575;SDS011;60613;48.658;2.328;2023-02-28T12:59:32;5.50;;;1.85;;
72575;SDS011;60613;48.658;2.328;2023-02-28T13:10:07;5.18;;;1.80;;
72575;SDS011;60613;48.658;2.328;2023-02-28T13:12:34;4.90;;;1.77;;
72575;SDS011;60613;48.658;2.328;2023-02-28T13:15:03;6.10;;;1.73;;
72575;SDS011;60613;48.658;2.328;2023-02-28T13:17:52;6.75;;;1.98;;
72575;SDS011;60613;48.658;2.328;2023-02-28T13:20:21;6.00;;;1.70;;
72575;SDS011;60613;48.658;2.328;2023-02-28T13:22:52;5.07;;;1.88;;
72575;SDS011;60613;48.658;2.328;2023-02-28T13:27:48;6.18;;;1.83;;
72575;SDS011;60613;48.658;2.328;2023-02-28T13:33:34;4.93;;;1.70;;
72575;SDS011;60613;48.658;2.328;2023-02-28T13:38:39;4.63;;;1.60;;
72575;SDS011;60613;48.658;2.328;2023-02-28T13:59:31;5.90;;;1.60;;
72575;SDS011;60613;48.658;2.328;2023-02-28T14:02:02;3.40;;;1.20;;
72575;SDS011;60613;48.658;2.328;2023-02-28T14:07:06;3.92;;;1.33;;
72575;SDS011;60613;48.658;2.328;2023-02-28T14:09:45;3.75;;;1.23;;
72575;SDS011;60613;48.658;2.328;2023-02-28T14:15:26;4.50;;;1.40;;
72575;SDS011;60613;48.658;2.328;2023-02-28T14:18:51;4.55;;;1.40;;
72575;SDS011;60613;48.658;2.328;2023-02-28T14:20:58;4.57;;;1.58;;
72575;SDS011;60613;48.658;2.328;2023-02-28T14:26:31;4.57;;;1.38;;
72575;SDS011;60613;48.658;2.328;2023-02-28T14:29:19;4.80;;;1.30;;
72575;SDS011;60613;48.658;2.328;2023-02-28T14:37:56;3.47;;;1.20;;
72575;SDS011;60613;48.658;2.328;2023-02-28T14:43:03;3.40;;;1.30;;
72575;SDS011;60613;48.658;2.328;2023-02-28T14:45:31;3.65;;;1.20;;
72575;SDS011;60613;48.658;2.328;2023-02-28T14:47:58;3.47;;;1.20;;
72575;SDS011;60613;48.658;2.328;2023-02-28T14:50:33;2.60;;;0.93;;
72575;SDS011;60613;48.658;2.328;2023-02-28T14:53:01;4.07;;;1.20;;
72575;SDS011;60613;48.658;2.328;2023-02-28T14:55:31;3.42;;;1.20;;
72575;SDS011;60613;48.658;2.328;2023-02-28T14:58:00;3.75;;;1.20;;
72575;SDS011;60613;48.658;2.328;2023-02-28T15:00:30;4.22;;;1.20;;
72575;SDS011;60613;48.658;2.328;2023-02-28T15:02:58;3.95;;;1.10;;
72575;SDS011;60613;48.658;2.328;2023-02-28T15:05:32;2.80;;;1.10;;
72575;SDS011;60613;48.658;2.328;2023-02-28T15:08:15;4.25;;;1.20;;
72575;SDS011;60613;48.658;2.328;2023-02-28T15:10:49;3.75;;;1.20;;
72575;SDS011;60613;48.658;2.328;2023-02-28T15:13:20;3.53;;;1.20;;
72575;SDS011;60613;48.658;2.328;2023-02-28T15:18:24;3.93;;;1.30;;
72575;SDS011;60613;48.658;2.328;2023-02-28T15:21:24;3.53;;;1.13;;
72575;SDS011;60613;48.658;2.328;2023-02-28T15:24:05;3.47;;;1.10;;
72575;SDS011;60613;48.658;2.328;2023-02-28T15:26:57;4.25;;;1.17;;
72575;SDS011;60613;48.658;2.328;2023-02-28T15:29:25;4.07;;;1.20;;
72575;SDS011;60613;48.658;2.328;2023-02-28T15:32:01;3.40;;;1.20;;
72575;SDS011;60613;48.658;2.328;2023-02-28T15:34:38;3.58;;;1.10;;
72575;SDS011;60613;48.658;2.328;2023-02-28T15:39:53;2.90;;;1.20;;
72575;SDS011;60613;48.658;2.328;2023-02-28T15:42:21;3.05;;;1.13;;
72575;SDS011;60613;48.658;2.328;2023-02-28T15:44:48;4.23;;;1.00;;
72575;SDS011;60613;48.658;2.328;2023-02-28T15:47:18;4.38;;;1.45;;
72575;SDS011;60613;48.658;2.328;2023-02-28T15:49:52;3.95;;;1.20;;
72575;SDS011;60613;48.658;2.328;2023-02-28T15:52:24;2.67;;;1.02;;
72575;SDS011;60613;48.658;2.328;2023-02-28T15:55:07;3.80;;;1.25;;
72575;SDS011;60613;48.658;2.328;2023-02-28T15:57:44;3.03;;;1.30;;
72575;SDS011;60613;48.658;2.328;2023-02-28T16:00:13;3.42;;;1.17;;
72575;SDS011;60613;48.658;2.328;2023-02-28T16:02:41;4.28;;;1.25;;
72575;SDS011;60613;48.658;2.328;2023-02-28T16:07:33;4.73;;;1.30;;
72575;SDS011;60613;48.658;2.328;2023-02-28T16:10:07;3.55;;;1.30;;
72575;SDS011;60613;48.658;2.328;2023-02-28T16:12:35;3.53;;;1.27;;
72575;SDS011;60613;48.658;2.328;2023-02-28T16:15:06;4.03;;;1.30;;
72575;SDS011;60613;48.658;2.328;2023-02-28T16:17:41;4.70;;;1.30;;
72575;SDS011;60613;48.658;2.328;2023-02-28T16:22:38;4.50;;;1.50;;
72575;SDS011;60613;48.658;2.328;2023-02-28T16:25:04;4.27;;;1.30;;
72575;SDS011;60613;48.658;2.328;2023-02-28T16:27:34;3.67;;;1.20;;
72575;SDS011;60613;48.658;2.328;2023-02-28T16:30:02;4.50;;;1.50;;
72575;SDS011;60613;48.658;2.328;2023-02-28T16:32:29;4.10;;;1.40;;
72575;SDS011;60613;48.658;2.328;2023-02-28T16:34:56;4.03;;;1.40;;
72575;SDS011;60613;48.658;2.328;2023-02-28T16:37:22;3.73;;;1.33;;
72575;SDS011;60613;48.658;2.328;2023-02-28T16:39:48;4.70;;;1.33;;
72575;SDS011;60613;48.658;2.328;2023-02-28T16:42:20;4.13;;;1.40;;
72575;SDS011;60613;48.658;2.328;2023-02-28T16:44:52;3.97;;;1.45;;
72575;SDS011;60613;48.658;2.328;2023-02-28T16:47:18;4.72;;;1.58;;
72575;SDS011;60613;48.658;2.328;2023-02-28T16:49:44;4.20;;;1.43;;
72575;SDS011;60613;48.658;2.328;2023-02-28T16:52:10;4.38;;;1.50;;
72575;SDS011;60613;48.658;2.328;2023-02-28T16:54:37;3.40;;;1.23;;
72575;SDS011;60613;48.658;2.328;2023-02-28T16:57:04;4.45;;;1.40;;
72575;SDS011;60613;48.658;2.328;2023-02-28T16:59:31;3.77;;;1.50;;
72575;SDS011;60613;48.658;2.328;2023-02-28T17:01:57;4.70;;;1.63;;
72575;SDS011;60613;48.658;2.328;2023-02-28T17:04:24;4.25;;;1.40;;
72575;SDS011;60613;48.658;2.328;2023-02-28T17:06:53;4.63;;;1.50;;
72575;SDS011;60613;48.658;2.328;2023-02-28T17:09:19;3.80;;;1.17;;
72575;SDS011;60613;48.658;2.328;2023-02-28T17:11:47;5.32;;;1.52;;
72575;SDS011;60613;48.658;2.328;2023-02-28T17:14:13;3.72;;;1.40;;
72575;SDS011;60613;48.658;2.328;2023-02-28T17:16:40;3.73;;;1.30;;
72575;SDS011;60613;48.658;2.328;2023-02-28T17:19:09;4.57;;;1.88;;
72575;SDS011;60613;48.658;2.328;2023-02-28T17:21:38;5.30;;;2.20;;
72575;SDS011;60613;48.658;2.328;2023-02-28T17:24:06;6.32;;;2.58;;
72575;SDS011;60613;48.658;2.328;2023-02-28T17:26:33;5.65;;;2.50;;
72575;SDS011;60613;48.658;2.328;2023-02-28T17:28:58;7.07;;;2.53;;
72575;SDS011;60613;48.658;2.328;2023-02-28T17:31:25;5.65;;;2.20;;
72575;SDS011;60613;48.658;2.328;2023-02-28T17:33:51;8.15;;;2.65;;
72575;SDS011;60613;48.658;2.328;2023-02-28T17:36:27;5.97;;;2.40;;
72575;SDS011;60613;48.658;2.328;2023-02-28T17:38:53;7.38;;;2.55;;
72575;SDS011;60613;48.658;2.328;2023-02-28T17:41:23;6.05;;;2.42;;
72575;SDS011;60613;48.658;2.328;2023-02-28T17:43:51;6.93;;;2.50;;
72575;SDS011;60613;48.658;2.328;2023-02-28T17:46:18;8.43;;;3.53;;
72575;SDS011;60613;48.658;2.328;2023-02-28T17:48:49;6.70;;;3.05;;
72575;SDS011;60613;48.658;2.328;2023-02-28T17:51:16;6.97;;;3.10;;
72575;SDS011;60613;48.658;2.328;2023-02-28T17:53:43;7.60;;;3.20;;
72575;SDS011;60613;48.658;2.328;2023-02-28T17:56:13;7.22;;;3.00;;
72575;SDS011;60613;48.658;2.328;2023-02-28T17:58:43;6.70;;;3.03;;
72575;SDS011;60613;48.658;2.328;2023-02-28T18:01:09;8.23;;;3.58;;
72575;SDS011;60613;48.658;2.328;2023-02-28T18:03:35;9.13;;;3.05;;
72575;SDS011;60613;48.658;2.328;2023-02-28T18:06:01;8.50;;;4.40;;
72575;SDS011;60613;48.658;2.328;2023-02-28T18:08:27;9.40;;;5.68;;
72575;SDS011;60613;48.658;2.328;2023-02-28T18:10:53;9.32;;;5.85;;
72575;SDS011;60613;48.658;2.328;2023-02-28T18:13:19;9.60;;;5.90;;
72575;SDS011;60613;48.658;2.328;2023-02-28T18:15:44;10.37;;;6.10;;
72575;SDS011;60613;48.658;2.328;2023-02-28T18:18:10;9.13;;;5.97;;
72575;SDS011;60613;48.658;2.328;2023-02-28T18:20:36;9.33;;;4.50;;
72575;SDS011;60613;48.658;2.328;2023-02-28T18:23:01;7.82;;;4.45;;
72575;SDS011;60613;48.658;2.328;2023-02-28T18:25:28;7.57;;;3.92;;
72575;SDS011;60613;48.658;2.328;2023-02-28T18:27:53;7.40;;;3.87;;
72575;SDS011;60613;48.658;2.328;2023-02-28T18:30:25;6.75;;;3.55;;
72575;SDS011;60613;48.658;2.328;2023-02-28T18:32:56;6.85;;;3.80;;
72575;SDS011;60613;48.658;2.328;2023-02-28T18:35:23;7.20;;;3.40;;
72575;SDS011;60613;48.658;2.328;2023-02-28T18:38:00;7.10;;;3.20;;
72575;SDS011;60613;48.658;2.328;2023-02-28T18:40:26;6.57;;;3.00;;
72575;SDS011;60613;48.658;2.328;2023-02-28T18:42:52;6.65;;;3.03;;
72575;SDS011;60613;48.658;2.328;2023-02-28T18:45:17;6.43;;;2.80;;
72575;SDS011;60613;48.658;2.328;2023-02-28T18:47:43;5.63;;;2.60;;
72575;SDS011;60613;48.658;2.328;2023-02-28T18:50:09;5.72;;;2.60;;
72575;SDS011;60613;48.658;2.328;2023-02-28T18:52:35;6.40;;;2.80;;
72575;SDS011;60613;48.658;2.328;2023-02-28T18:55:00;5.53;;;2.50;;
72575;SDS011;60613;48.658;2.328;2023-02-28T18:57:27;6.57;;;2.77;;
72575;SDS011;60613;48.658;2.328;2023-02-28T18:59:52;5.40;;;2.58;;
72575;SDS011;60613;48.658;2.328;2023-02-28T19:02:18;6.13;;;2.80;;
72575;SDS011;60613;48.658;2.328;2023-02-28T19:04:44;5.73;;;2.40;;
72575;SDS011;60613;48.658;2.328;2023-02-28T19:07:09;6.87;;;2.37;;
72575;SDS011;60613;48.658;2.328;2023-02-28T19:09:35;5.28;;;2.25;;
72575;SDS011;60613;48.658;2.328;2023-02-28T19:12:00;5.40;;;2.20;;
72575;SDS011;60613;48.658;2.328;2023-02-28T19:14:26;5.03;;;2.22;;
72575;SDS011;60613;48.658;2.328;2023-02-28T19:16:51;5.33;;;2.27;;
72575;SDS011;60613;48.658;2.328;2023-02-28T19:19:17;5.90;;;2.28;;
72575;SDS011;60613;48.658;2.328;2023-02-28T19:21:43;5.70;;;2.20;;
72575;SDS011;60613;48.658;2.328;2023-02-28T19:24:08;5.03;;;2.20;;
72575;SDS011;60613;48.658;2.328;2023-02-28T19:26:34;5.50;;;2.38;;
72575;SDS011;60613;48.658;2.328;2023-02-28T19:29:03;5.27;;;2.00;;
72575;SDS011;60613;48.658;2.328;2023-02-28T19:31:29;5.97;;;2.38;;
72575;SDS011;60613;48.658;2.328;2023-02-28T19:33:55;4.78;;;1.98;;
72575;SDS011;60613;48.658;2.328;2023-02-28T19:36:21;5.82;;;2.17;;
72575;SDS011;60613;48.658;2.328;2023-02-28T19:38:47;5.23;;;2.17;;
72575;SDS011;60613;48.658;2.328;2023-02-28T19:41:14;5.18;;;2.30;;
72575;SDS011;60613;48.658;2.328;2023-02-28T19:43:41;5.10;;;1.88;;
72575;SDS011;60613;48.658;2.328;2023-02-28T19:46:07;5.30;;;2.40;;
72575;SDS011;60613;48.658;2.328;2023-02-28T19:48:33;5.28;;;2.10;;
72575;SDS011;60613;48.658;2.328;2023-02-28T19:51:08;5.18;;;2.05;;
72575;SDS011;60613;48.658;2.328;2023-02-28T19:53:36;6.43;;;2.40;;
72575;SDS011;60613;48.658;2.328;2023-02-28T19:56:02;5.78;;;2.33;;
72575;SDS011;60613;48.658;2.328;2023-02-28T19:58:29;5.32;;;1.95;;
72575;SDS011;60613;48.658;2.328;2023-02-28T20:00:56;5.90;;;2.30;;
72575;SDS011;60613;48.658;2.328;2023-02-28T20:03:21;5.93;;;2.13;;
72575;SDS011;60613;48.658;2.328;2023-02-28T20:05:57;5.68;;;2.17;;
72575;SDS011;60613;48.658;2.328;2023-02-28T20:08:24;5.53;;;2.40;;
72575;SDS011;60613;48.658;2.328;2023-02-28T20:10:50;5.15;;;2.30;;
72575;SDS011;60613;48.658;2.328;2023-02-28T20:13:15;5.23;;;2.13;;
72575;SDS011;60613;48.658;2.328;2023-02-28T20:15:42;5.85;;;2.40;;
72575;SDS011;60613;48.658;2.328;2023-02-28T20:18:07;5.80;;;2.27;;
72575;SDS011;60613;48.658;2.328;2023-02-28T20:20:33;5.75;;;2.50;;
72575;SDS011;60613;48.658;2.328;2023-02-28T20:23:01;5.90;;;2.30;;
72575;SDS011;60613;48.658;2.328;2023-02-28T20:25:27;6.03;;;2.47;;
72575;SDS011;60613;48.658;2.328;2023-02-28T20:27:53;6.25;;;2.42;;
72575;SDS011;60613;48.658;2.328;2023-02-28T20:30:18;5.97;;;2.70;;
72575;SDS011;60613;48.658;2.328;2023-02-28T20:32:46;5.85;;;2.60;;
72575;SDS011;60613;48.658;2.328;2023-02-28T20:35:12;6.35;;;2.47;;
72575;SDS011;60613;48.658;2.328;2023-02-28T20:37:38;6.03;;;2.57;;
72575;SDS011;60613;48.658;2.328;2023-02-28T20:40:04;5.60;;;2.33;;
72575;SDS011;60613;48.658;2.328;2023-02-28T20:42:30;6.70;;;2.45;;
72575;SDS011;60613;48.658;2.328;2023-02-28T20:44:56;5.90;;;2.47;;
72575;SDS011;60613;48.658;2.328;2023-02-28T20:47:22;6.47;;;2.78;;
72575;SDS011;60613;48.658;2.328;2023-02-28T20:49:47;7.13;;;2.73;;
72575;SDS011;60613;48.658;2.328;2023-02-28T20:52:13;6.78;;;3.00;;
72575;SDS011;60613;48.658;2.328;2023-02-28T20:54:38;6.60;;;2.83;;
72575;SDS011;60613;48.658;2.328;2023-02-28T20:57:04;6.13;;;2.70;;
72575;SDS011;60613;48.658;2.328;2023-02-28T20:59:29;6.32;;;2.92;;
72575;SDS011;60613;48.658;2.328;2023-02-28T21:01:55;6.50;;;2.90;;
72575;SDS011;60613;48.658;2.328;2023-02-28T21:04:21;6.63;;;3.10;;
72575;SDS011;60613;48.658;2.328;2023-02-28T21:06:46;6.90;;;2.77;;
72575;SDS011;60613;48.658;2.328;2023-02-28T21:09:13;6.00;;;2.55;;
72575;SDS011;60613;48.658;2.328;2023-02-28T21:11:40;7.05;;;2.85;;
72575;SDS011;60613;48.658;2.328;2023-02-28T21:14:07;6.83;;;3.07;;
72575;SDS011;60613;48.658;2.328;2023-02-28T21:16:38;7.03;;;3.13;;
72575;SDS011;60613;48.658;2.328;2023-02-28T21:19:05;6.65;;;3.08;;
72575;SDS011;60613;48.658;2.328;2023-02-28T21:21:40;6.50;;;3.00;;
72575;SDS011;60613;48.658;2.328;2023-02-28T21:24:11;6.93;;;3.00;;
72575;SDS011;60613;48.658;2.328;2023-02-28T21:26:39;7.22;;;3.13;;
72575;SDS011;60613;48.658;2.328;2023-02-28T21:29:06;7.47;;;3.10;;
72575;SDS011;60613;48.658;2.328;2023-02-28T21:31:32;6.47;;;3.00;;
72575;SDS011;60613;48.658;2.328;2023-02-28T21:33:59;6.63;;;3.07;;
72575;SDS011;60613;48.658;2.328;2023-02-28T21:36:27;7.05;;;3.25;;
72575;SDS011;60613;48.658;2.328;2023-02-28T21:38:57;6.60;;;2.95;;
72575;SDS011;60613;48.658;2.328;2023-02-28T21:41:25;7.70;;;2.97;;
72575;SDS011;60613;48.658;2.328;2023-02-28T21:43:53;7.18;;;3.17;;
72575;SDS011;60613;48.658;2.328;2023-02-28T21:46:20;6.23;;;2.90;;
72575;SDS011;60613;48.658;2.328;2023-02-28T21:48:48;7.35;;;3.10;;
72575;SDS011;60613;48.658;2.328;2023-02-28T21:51:15;7.28;;;3.05;;
72575;SDS011;60613;48.658;2.328;2023-02-28T21:53:43;7.03;;;3.10;;
72575;SDS011;60613;48.658;2.328;2023-02-28T21:56:13;7.27;;;3.13;;
72575;SDS011;60613;48.658;2.328;2023-02-28T21:58:43;6.97;;;2.80;;
